createdAt,value
2022-11-24T00:00:06.566Z,0.73
2022-11-24T00:02:33.039Z,0.63
2022-11-24T00:04:59.658Z,0.49
2022-11-24T00:07:26.297Z,0.65
2022-11-24T00:09:52.761Z,0.42
2022-11-24T00:12:19.162Z,0.29
2022-11-24T00:14:46.971Z,0.40
2022-11-24T00:17:13.518Z,0.33
2022-11-24T00:19:40.062Z,0.27
2022-11-24T00:22:06.456Z,0.45
2022-11-24T00:24:33.240Z,0.74
2022-11-24T00:26:59.823Z,0.72
2022-11-24T00:29:26.365Z,0.59
2022-11-24T00:31:52.822Z,0.56
2022-11-24T00:34:19.411Z,0.45
2022-11-24T00:36:45.816Z,0.13
2022-11-24T00:39:14.378Z,0.39
2022-11-24T00:41:42.193Z,0.64
2022-11-24T00:44:08.999Z,0.34
2022-11-24T00:46:35.972Z,0.32
2022-11-24T00:49:02.937Z,0.46
2022-11-24T00:51:30.330Z,0.51
2022-11-24T00:53:57.657Z,0.57
2022-11-24T00:56:25.499Z,0.44
2022-11-24T00:58:52.234Z,0.43
2022-11-24T01:01:21.992Z,0.40
2022-11-24T01:03:49.345Z,0.11
2022-11-24T01:06:18.936Z,0.31
2022-11-24T01:08:46.225Z,0.27
2022-11-24T01:11:12.654Z,0.51
2022-11-24T01:13:40.154Z,-0.34
2022-11-24T01:16:12.762Z,-0.44
2022-11-24T01:18:39.435Z,-0.36
2022-11-24T01:21:10.114Z,-0.61
2022-11-24T01:23:36.855Z,-0.66
2022-11-24T01:26:08.080Z,-0.06
2022-11-24T01:28:34.784Z,0.06
2022-11-24T01:31:03.677Z,0.14
2022-11-24T01:33:30.389Z,0.10
2022-11-24T01:36:00.566Z,-0.02
2022-11-24T01:38:27.622Z,-0.02
2022-11-24T01:41:07.854Z,-0.27
2022-11-24T01:43:34.966Z,-0.18
2022-11-24T01:46:26.763Z,-0.02
2022-11-24T01:49:06.181Z,-0.12
2022-11-24T01:51:36.205Z,-0.79
2022-11-24T01:54:16.009Z,-0.53
2022-11-24T01:56:46.260Z,-0.43
2022-11-24T01:59:15.742Z,-0.27
2022-11-24T02:01:42.287Z,-0.67
2022-11-24T02:04:13.265Z,-0.44
2022-11-24T02:07:14.311Z,-0.33
2022-11-24T02:09:49.140Z,-0.08
2022-11-24T02:12:15.563Z,-0.33
2022-11-24T02:14:44.057Z,-0.16
2022-11-24T02:17:10.645Z,-0.19
2022-11-24T02:19:39.861Z,0.18
2022-11-24T02:22:22.809Z,0.29
2022-11-24T02:25:14.378Z,0.25
2022-11-24T02:27:48.200Z,0.10
2022-11-24T02:30:18.887Z,0.26
2022-11-24T02:32:45.361Z,0.19
2022-11-24T02:35:12.640Z,-0.04
2022-11-24T02:37:39.107Z,0.29
2022-11-24T02:40:06.525Z,0.10
2022-11-24T02:42:38.571Z,0.14
2022-11-24T02:45:05.599Z,0.40
2022-11-24T02:47:32.033Z,0.25
2022-11-24T02:49:58.425Z,0.20
2022-11-24T02:52:24.840Z,-0.01
2022-11-24T02:54:51.311Z,0.03
2022-11-24T02:57:17.772Z,0.08
2022-11-24T02:59:44.613Z,-0.02
2022-11-24T03:02:11.018Z,0.00
2022-11-24T03:04:37.470Z,0.10
2022-11-24T03:07:03.951Z,-0.24
2022-11-24T03:09:30.491Z,-0.67
2022-11-24T03:11:56.902Z,-0.30
2022-11-24T03:14:23.379Z,-0.51
2022-11-24T03:16:49.777Z,-0.28
2022-11-24T03:19:16.182Z,-0.15
2022-11-24T03:21:42.651Z,-0.11
2022-11-24T03:24:09.078Z,-0.13
2022-11-24T03:26:35.873Z,-0.14
2022-11-24T03:29:02.477Z,-0.43
2022-11-24T03:31:28.992Z,-0.90
2022-11-24T03:33:55.387Z,-0.91
2022-11-24T03:36:21.800Z,-0.93
2022-11-24T03:38:48.274Z,-0.61
2022-11-24T03:41:14.708Z,-0.39
2022-11-24T03:43:44.086Z,-0.36
2022-11-24T03:46:11.898Z,-0.54
2022-11-24T03:48:38.879Z,-0.25
2022-11-24T03:51:05.455Z,-0.53
2022-11-24T03:53:33.536Z,-0.24
2022-11-24T03:56:01.932Z,-0.09
2022-11-24T03:58:29.601Z,-0.07
2022-11-24T04:00:57.020Z,-0.01
2022-11-24T04:03:24.541Z,-0.60
2022-11-24T04:05:51.656Z,-0.57
2022-11-24T04:08:18.243Z,-0.55
2022-11-24T04:10:44.789Z,-0.61
2022-11-24T04:13:14.208Z,-0.28
2022-11-24T04:15:41.717Z,-0.22
2022-11-24T04:18:09.907Z,-0.07
2022-11-24T04:20:36.909Z,-0.10
2022-11-24T04:23:05.061Z,-0.11
2022-11-24T04:25:32.430Z,-0.06
2022-11-24T04:27:58.933Z,-0.05
2022-11-24T04:30:27.359Z,-0.20
2022-11-24T04:32:53.913Z,-0.17
2022-11-24T04:35:21.198Z,-0.26
2022-11-24T04:37:47.719Z,-0.09
2022-11-24T04:40:15.125Z,-0.38
2022-11-24T04:42:41.782Z,-0.32
2022-11-24T04:45:08.932Z,-0.70
2022-11-24T04:47:35.482Z,-0.73
2022-11-24T04:50:02.080Z,-1.41
2022-11-24T04:52:30.435Z,-0.80
2022-11-24T04:54:56.818Z,-1.27
2022-11-24T04:57:25.625Z,-0.65
2022-11-24T04:59:52.952Z,-0.73
2022-11-24T05:02:20.305Z,-0.59
2022-11-24T05:04:47.210Z,-0.36
2022-11-24T05:07:18.740Z,-0.96
2022-11-24T05:10:05.845Z,-0.94
2022-11-24T05:12:32.525Z,-0.61
2022-11-24T05:15:00.732Z,-0.54
2022-11-24T05:17:36.129Z,-0.45
2022-11-24T05:20:03.762Z,-0.50
2022-11-24T05:22:30.230Z,-0.36
2022-11-24T05:24:56.661Z,-0.20
2022-11-24T05:27:23.718Z,-0.54
2022-11-24T05:29:50.188Z,-0.46
2022-11-24T05:32:16.780Z,-0.51
2022-11-24T05:34:43.278Z,-0.82
2022-11-24T05:37:09.717Z,-1.63
2022-11-24T05:39:36.691Z,-1.02
2022-11-24T05:42:25.025Z,-0.65
2022-11-24T05:44:52.179Z,-0.58
2022-11-24T05:47:19.531Z,-1.03
2022-11-24T05:49:46.033Z,-1.03
2022-11-24T05:52:12.682Z,-0.97
2022-11-24T05:54:39.164Z,-1.04
2022-11-24T05:57:05.631Z,-0.87
2022-11-24T05:59:32.178Z,-1.80
2022-11-24T06:01:58.782Z,-1.12
2022-11-24T06:04:25.389Z,-0.82
2022-11-24T06:06:52.170Z,-0.77
2022-11-24T06:09:18.624Z,-0.90
2022-11-24T06:11:46.755Z,-0.52
2022-11-24T06:14:13.142Z,-0.59
2022-11-24T06:16:39.583Z,-0.55
2022-11-24T06:19:06.070Z,-0.95
2022-11-24T06:21:32.497Z,-0.66
2022-11-24T06:23:59.128Z,-0.57
2022-11-24T06:26:25.634Z,-0.59
2022-11-24T06:28:52.071Z,-0.58
2022-11-24T06:31:18.702Z,-0.63
2022-11-24T06:33:45.262Z,-0.67
2022-11-24T06:36:14.353Z,-0.54
2022-11-24T06:38:40.864Z,-0.49
2022-11-24T06:41:11.938Z,-0.47
2022-11-24T06:43:38.582Z,-0.39
2022-11-24T06:46:05.189Z,-0.37
2022-11-24T06:48:32.133Z,-0.27
2022-11-24T06:51:00.597Z,-0.51
2022-11-24T06:53:30.231Z,-0.39
2022-11-24T06:56:00.577Z,-0.39
2022-11-24T06:58:27.013Z,-0.53
2022-11-24T07:00:53.960Z,-0.57
2022-11-24T07:03:20.560Z,-0.60
2022-11-24T07:05:47.146Z,-0.56
2022-11-24T07:08:17.808Z,-0.31
2022-11-24T07:10:44.648Z,-0.37
2022-11-24T07:13:11.099Z,-0.61
2022-11-24T07:15:37.640Z,-0.44
2022-11-24T07:18:04.556Z,-0.41
2022-11-24T07:20:31.368Z,-0.28
2022-11-24T07:22:58.374Z,-0.40
2022-11-24T07:25:27.692Z,-0.32
2022-11-24T07:27:58.868Z,-0.24
2022-11-24T07:30:27.003Z,-0.18
2022-11-24T07:32:59.321Z,-0.11
2022-11-24T07:35:25.799Z,-0.37
2022-11-24T07:37:58.576Z,-0.16
2022-11-24T07:40:26.639Z,0.09
2022-11-24T07:42:53.898Z,-0.37
2022-11-24T07:45:20.632Z,-0.21
2022-11-24T07:50:28.525Z,-0.40
2022-11-24T07:55:44.054Z,-0.35
2022-11-24T07:58:10.499Z,-0.14
2022-11-24T08:00:36.917Z,0.07
2022-11-24T08:03:03.402Z,-0.06
2022-11-24T08:05:29.891Z,0.04
2022-11-24T08:07:56.451Z,0.16
2022-11-24T08:10:23.245Z,-0.04
2022-11-24T08:12:49.629Z,0.15
2022-11-24T08:15:16.157Z,-0.09
2022-11-24T08:17:42.561Z,-0.03
2022-11-24T08:20:09.826Z,0.18
2022-11-24T08:22:36.428Z,0.28
2022-11-24T08:25:02.935Z,0.04
2022-11-24T08:27:30.082Z,0.29
2022-11-24T08:29:56.483Z,0.20
2022-11-24T08:32:23.130Z,0.31
2022-11-24T08:34:49.667Z,0.20
2022-11-24T08:37:16.121Z,0.38
2022-11-24T08:39:42.582Z,0.46
2022-11-24T08:42:09.124Z,0.32
2022-11-24T08:44:35.979Z,0.32
2022-11-24T08:47:02.876Z,0.30
2022-11-24T08:49:29.490Z,0.03
2022-11-24T08:51:57.853Z,-0.19
2022-11-24T08:54:25.621Z,0.32
2022-11-24T08:56:52.063Z,0.44
2022-11-24T08:59:18.624Z,0.52
2022-11-24T09:01:45.126Z,0.56
2022-11-24T09:04:11.646Z,0.91
2022-11-24T09:06:38.158Z,0.93
2022-11-24T09:09:04.561Z,0.95
2022-11-24T09:11:34.150Z,0.84
2022-11-24T09:14:01.159Z,1.01
2022-11-24T09:16:29.156Z,1.20
2022-11-24T09:19:01.503Z,1.42
2022-11-24T09:21:29.364Z,1.32
2022-11-24T09:23:56.227Z,1.34
2022-11-24T09:26:28.322Z,0.86
2022-11-24T09:28:56.058Z,1.01
2022-11-24T09:31:25.536Z,1.24
2022-11-24T09:33:52.721Z,1.16
2022-11-24T09:36:20.376Z,0.89
2022-11-24T09:38:47.240Z,1.01
2022-11-24T09:41:33.640Z,1.27
2022-11-24T09:46:40.574Z,1.44
2022-11-24T09:49:16.557Z,1.46
2022-11-24T09:51:46.267Z,1.39
2022-11-24T10:05:18.743Z,1.74
2022-11-24T10:08:16.449Z,1.82
2022-11-24T10:10:57.124Z,1.62
2022-11-24T10:13:46.688Z,1.51
2022-11-24T10:16:22.160Z,1.98
2022-11-24T10:19:00.779Z,2.34
2022-11-24T10:22:04.989Z,2.15
2022-11-24T10:25:13.586Z,2.49
2022-11-24T10:27:44.174Z,2.63
2022-11-24T10:30:15.442Z,2.72
2022-11-24T10:32:47.708Z,2.75
2022-11-24T10:38:06.877Z,2.76
2022-11-24T10:43:11.414Z,3.39
2022-11-24T10:45:39.446Z,3.66
2022-11-24T10:48:27.425Z,3.71
2022-11-24T10:51:06.345Z,3.78
2022-11-24T10:56:14.425Z,4.39
2022-11-24T10:58:40.915Z,3.01
2022-11-24T11:01:13.642Z,3.91
2022-11-24T11:03:48.883Z,3.77
2022-11-24T11:06:25.209Z,3.64
2022-11-24T11:09:17.700Z,3.18
2022-11-24T11:17:30.503Z,2.97
2022-11-24T11:20:03.091Z,3.12
2022-11-24T11:22:37.204Z,3.33
2022-11-24T11:25:03.645Z,3.63
2022-11-24T11:27:30.404Z,3.66
2022-11-24T11:35:50.816Z,3.58
2022-11-24T11:38:17.711Z,3.07
2022-11-24T11:40:44.434Z,3.36
2022-11-24T11:43:27.103Z,3.27
2022-11-24T11:46:03.809Z,2.66
2022-11-24T11:48:43.030Z,3.30
2022-11-24T11:51:25.559Z,3.35
2022-11-24T11:54:23.056Z,3.39
2022-11-24T11:57:01.315Z,3.17
2022-11-24T11:59:38.029Z,3.41
2022-11-24T12:02:22.860Z,3.04
2022-11-24T12:04:59.080Z,2.86
2022-11-24T12:07:46.212Z,2.75
2022-11-24T12:10:41.998Z,3.34
2022-11-24T12:13:38.144Z,3.04
2022-11-24T12:16:34.337Z,3.39
2022-11-24T12:19:46.459Z,3.37
2022-11-24T12:22:18.607Z,2.89
2022-11-24T12:24:56.577Z,2.76
2022-11-24T12:28:01.893Z,2.62
2022-11-24T12:30:40.415Z,2.67
2022-11-24T12:33:26.916Z,2.45
2022-11-24T12:36:04.408Z,2.59
2022-11-24T12:38:49.246Z,2.62
2022-11-24T12:43:59.727Z,3.09
2022-11-24T12:46:38.381Z,3.05
2022-11-24T12:49:31.594Z,3.55
2022-11-24T12:52:24.418Z,3.46
2022-11-24T12:54:51.031Z,3.76
2022-11-24T12:57:28.652Z,3.47
2022-11-24T13:00:14.314Z,3.81
2022-11-24T13:13:59.653Z,3.66
2022-11-24T13:16:59.520Z,3.72
2022-11-24T13:19:17.447Z,4.03
2022-11-24T13:27:27.627Z,4.10
2022-11-24T13:35:15.606Z,4.21
2022-11-24T13:43:02.491Z,3.99
2022-11-24T13:48:21.909Z,3.96
2022-11-24T13:50:56.098Z,3.94
2022-11-24T13:53:34.698Z,3.85
2022-11-24T13:58:51.248Z,2.87
2022-11-24T14:06:55.036Z,3.71
2022-11-24T14:14:56.986Z,3.27
2022-11-24T14:17:27.539Z,3.84
2022-11-24T14:19:58.307Z,3.72
2022-11-24T14:22:41.228Z,3.97
2022-11-24T14:30:31.597Z,3.27
2022-11-24T14:35:44.651Z,3.69
2022-11-24T14:40:54.390Z,3.89
2022-11-24T14:45:58.384Z,4.03
2022-11-24T14:48:28.064Z,4.02
2022-11-24T14:51:16.104Z,3.77
2022-11-24T14:53:49.004Z,3.98
2022-11-24T14:56:30.251Z,3.95
2022-11-24T14:58:57.860Z,3.99
2022-11-24T15:01:27.081Z,3.89
2022-11-24T15:07:01.092Z,3.85
2022-11-24T15:09:39.519Z,3.97
2022-11-24T15:12:08.686Z,4.02
2022-11-24T15:14:58.065Z,3.63
2022-11-24T15:17:28.077Z,3.58
2022-11-24T15:20:03.100Z,3.61
2022-11-24T15:22:29.476Z,3.75
2022-11-24T15:24:55.919Z,3.93
2022-11-24T15:27:22.320Z,3.96
2022-11-24T15:29:49.522Z,3.91
2022-11-24T15:32:16.492Z,3.47
2022-11-24T15:34:43.072Z,3.75
2022-11-24T15:37:09.506Z,3.88
2022-11-24T15:39:36.017Z,3.91
2022-11-24T15:42:02.500Z,3.91
2022-11-24T15:44:29.533Z,3.45
2022-11-24T15:46:56.044Z,3.43
2022-11-24T15:49:22.463Z,3.03
2022-11-24T15:51:48.925Z,3.06
2022-11-24T15:54:18.398Z,2.53
2022-11-24T15:56:44.868Z,2.89
2022-11-24T18:01:05.566Z,3.25
2022-11-24T18:03:32.781Z,3.10
2022-11-24T18:06:12.250Z,3.50
2022-11-24T18:08:43.686Z,3.62
2022-11-24T18:11:24.650Z,3.48
2022-11-24T18:14:00.146Z,3.32
2022-11-24T18:16:30.568Z,3.44
2022-11-24T18:19:14.935Z,3.56
2022-11-24T18:21:44.964Z,3.55
2022-11-24T18:24:19.667Z,3.46
2022-11-24T18:26:51.173Z,3.13
2022-11-24T18:32:01.499Z,2.89
2022-11-24T18:34:31.828Z,3.14
2022-11-24T18:37:07.801Z,3.34
2022-11-24T18:39:38.060Z,2.98
2022-11-24T18:42:04.813Z,2.99
2022-11-24T18:44:33.287Z,3.20
2022-11-24T18:47:00.029Z,3.17
2022-11-24T18:49:26.540Z,3.09
2022-11-24T18:51:53.005Z,3.18
2022-11-24T18:54:19.560Z,3.27
2022-11-24T18:56:45.965Z,3.05
2022-11-24T18:59:12.428Z,3.26
2022-11-24T19:01:38.989Z,3.22
2022-11-24T19:04:05.696Z,3.18
2022-11-24T19:06:35.125Z,3.21
2022-11-24T19:09:05.512Z,2.73
2022-11-24T19:11:35.551Z,2.80
2022-11-24T19:14:06.953Z,2.90
2022-11-24T19:16:34.355Z,3.05
2022-11-24T19:19:02.557Z,3.05
2022-11-24T19:21:34.512Z,2.89
2022-11-24T19:24:05.471Z,2.88
2022-11-24T19:26:33.155Z,2.67
2022-11-24T19:29:00.879Z,2.89
2022-11-24T19:31:27.463Z,2.91
2022-11-24T19:33:54.682Z,2.67
2022-11-24T19:36:22.779Z,2.61
2022-11-24T19:38:51.349Z,2.61
2022-11-24T19:41:21.410Z,2.76
2022-11-24T19:43:48.426Z,2.59
2022-11-24T19:46:17.576Z,2.50
2022-11-24T19:48:46.258Z,2.71
2022-11-24T19:51:15.932Z,2.75
2022-11-24T19:53:43.434Z,2.62
2022-11-24T19:56:15.427Z,2.60
2022-11-24T19:58:42.663Z,2.74
2022-11-24T20:01:17.736Z,2.72
2022-11-24T20:03:45.626Z,2.45
2022-11-24T20:06:14.037Z,2.69
2022-11-24T20:08:42.284Z,2.36
2022-11-24T20:11:11.458Z,2.51
2022-11-24T20:13:40.561Z,2.59
2022-11-24T20:16:10.940Z,2.63
2022-11-24T20:18:46.596Z,2.58
2022-11-24T20:21:16.129Z,2.12
2022-11-24T20:23:43.610Z,2.37
2022-11-24T20:26:15.478Z,2.35
2022-11-24T20:28:42.192Z,2.37
2022-11-24T20:31:11.810Z,2.30
2022-11-24T20:33:39.108Z,2.28
2022-11-24T20:36:08.427Z,2.39
2022-11-24T20:38:36.638Z,2.38
2022-11-24T20:41:09.873Z,2.24
2022-11-24T20:43:37.663Z,2.21
2022-11-24T20:46:06.063Z,2.19
2022-11-24T20:48:33.569Z,2.29
2022-11-24T20:51:05.328Z,2.01
2022-11-24T20:53:31.803Z,1.93
2022-11-24T20:56:06.624Z,2.15
2022-11-24T20:58:34.808Z,2.22
2022-11-24T21:01:18.409Z,1.78
2022-11-24T21:03:46.367Z,2.01
2022-11-24T21:06:14.152Z,1.70
2022-11-24T21:08:42.038Z,1.66
2022-11-24T21:11:13.926Z,2.03
2022-11-24T21:13:44.332Z,1.97
2022-11-24T21:16:17.811Z,1.90
2022-11-24T21:18:45.838Z,1.79
2022-11-24T21:21:13.349Z,2.02
2022-11-24T21:23:40.139Z,1.85
2022-11-24T21:26:13.147Z,1.80
2022-11-24T21:28:42.808Z,1.73
2022-11-24T21:31:12.525Z,1.90
2022-11-24T21:33:45.413Z,1.29
2022-11-24T21:36:14.692Z,0.85
2022-11-24T21:38:42.769Z,1.41
2022-11-24T21:41:11.258Z,1.47
2022-11-24T21:43:38.578Z,1.19
2022-11-24T21:46:07.616Z,1.50
2022-11-24T21:48:35.704Z,1.31
2022-11-24T21:51:07.173Z,1.34
2022-11-24T21:53:36.380Z,1.31
2022-11-24T21:56:05.891Z,1.55
2022-11-24T21:58:33.621Z,1.47
2022-11-24T22:01:10.424Z,1.35
2022-11-24T22:03:36.986Z,1.69
2022-11-24T22:06:03.768Z,1.16
2022-11-24T22:08:31.643Z,1.76
2022-11-24T22:11:03.884Z,1.74
2022-11-24T22:13:30.582Z,1.51
2022-11-24T22:16:01.880Z,1.96
2022-11-24T22:18:33.366Z,1.98
2022-11-24T22:21:00.519Z,1.73
2022-11-24T22:23:27.048Z,1.44
2022-11-24T22:25:53.519Z,1.35
2022-11-24T22:28:19.950Z,1.92
2022-11-24T22:30:46.545Z,1.97
2022-11-24T22:33:13.812Z,2.16
2022-11-24T22:35:40.272Z,2.28
2022-11-24T22:38:06.765Z,2.24
2022-11-24T22:40:33.350Z,2.09
2022-11-24T22:42:59.948Z,2.09
2022-11-24T22:45:26.499Z,2.30
2022-11-24T22:47:56.213Z,2.31
2022-11-24T22:50:22.655Z,2.36
2022-11-24T22:52:50.022Z,2.35
2022-11-24T22:55:16.500Z,2.52
2022-11-24T22:57:47.398Z,2.61
2022-11-24T23:00:18.258Z,2.65
2022-11-24T23:02:44.965Z,2.28
2022-11-24T23:05:11.507Z,2.59
2022-11-24T23:07:38.033Z,2.60
2022-11-24T23:10:04.694Z,2.67
2022-11-24T23:12:31.140Z,2.71
2022-11-24T23:14:57.587Z,2.80
2022-11-24T23:17:24.392Z,2.78
2022-11-24T23:19:50.863Z,2.83
2022-11-24T23:22:17.301Z,2.85
2022-11-24T23:24:43.757Z,2.85
2022-11-24T23:27:10.255Z,2.86
2022-11-24T23:29:36.753Z,2.91
2022-11-24T23:32:03.334Z,2.83
2022-11-24T23:34:29.829Z,2.94
2022-11-24T23:36:56.418Z,2.93
2022-11-24T23:39:23.397Z,2.76
2022-11-24T23:41:49.792Z,2.40
2022-11-24T23:44:16.219Z,2.51
2022-11-24T23:46:42.630Z,2.60
2022-11-24T23:49:09.074Z,2.79
2022-11-24T23:51:35.569Z,2.15
2022-11-24T23:54:02.011Z,2.34
2022-11-24T23:56:33.074Z,2.60
2022-11-24T23:59:00.916Z,2.48
